sensor_id;sensor_type;location;lat;lon;timestamp;temperature;humidity
22503;DHT22;11418;48.118;9.992;2023-07-02T00:03:08;16.70;99.90
22503;DHT22;11418;48.118;9.992;2023-07-02T00:07:10;16.80;99.90
22503;DHT22;11418;48.118;9.992;2023-07-02T00:11:10;16.90;99.90
22503;DHT22;11418;48.118;9.992;2023-07-02T00:15:12;16.90;99.90
22503;DHT22;11418;48.118;9.992;2023-07-02T00:19:13;16.70;99.90
22503;DHT22;11418;48.118;9.992;2023-07-02T00:23:14;16.90;99.90
22503;DHT22;11418;48.118;9.992;2023-07-02T00:27:14;16.80;99.90
22503;DHT22;11418;48.118;9.992;2023-07-02T00:31:14;16.80;99.90
22503;DHT22;11418;48.118;9.992;2023-07-02T00:35:15;16.70;99.90
22503;DHT22;11418;48.118;9.992;2023-07-02T00:39:15;16.80;99.90
22503;DHT22;11418;48.118;9.992;2023-07-02T00:43:18;16.60;99.90
22503;DHT22;11418;48.118;9.992;2023-07-02T00:47:18;16.50;99.90
22503;DHT22;11418;48.118;9.992;2023-07-02T00:51:19;16.70;99.90
22503;DHT22;11418;48.118;9.992;2023-07-02T00:55:20;16.60;99.90
22503;DHT22;11418;48.118;9.992;2023-07-02T00:59:21;16.70;99.90
22503;DHT22;11418;48.118;9.992;2023-07-02T01:03:22;16.80;99.90
22503;DHT22;11418;48.118;9.992;2023-07-02T01:07:22;17.10;99.90
22503;DHT22;11418;48.118;9.992;2023-07-02T01:15:32;16.80;99.90
22503;DHT22;11418;48.118;9.992;2023-07-02T01:23:40;16.80;99.90
22503;DHT22;11418;48.118;9.992;2023-07-02T01:27:41;16.80;99.90
22503;DHT22;11418;48.118;9.992;2023-07-02T01:31:41;16.70;99.90
22503;DHT22;11418;48.118;9.992;2023-07-02T01:35:42;16.70;99.90
22503;DHT22;11418;48.118;9.992;2023-07-02T01:39:42;16.90;99.90
22503;DHT22;11418;48.118;9.992;2023-07-02T01:43:43;16.70;99.90
22503;DHT22;11418;48.118;9.992;2023-07-02T01:47:43;16.90;99.90
22503;DHT22;11418;48.118;9.992;2023-07-02T01:51:54;16.70;99.90
22503;DHT22;11418;48.118;9.992;2023-07-02T01:55:55;16.80;99.90
22503;DHT22;11418;48.118;9.992;2023-07-02T01:59:55;16.60;99.90
22503;DHT22;11418;48.118;9.992;2023-07-02T02:03:56;16.60;99.90
22503;DHT22;11418;48.118;9.992;2023-07-02T02:07:56;16.70;99.90
22503;DHT22;11418;48.118;9.992;2023-07-02T02:11:57;16.70;99.90
22503;DHT22;11418;48.118;9.992;2023-07-02T02:15:57;16.70;99.90
22503;DHT22;11418;48.118;9.992;2023-07-02T02:19:58;16.70;99.90
22503;DHT22;11418;48.118;9.992;2023-07-02T02:23:58;16.60;99.90
22503;DHT22;11418;48.118;9.992;2023-07-02T02:27:58;16.60;99.90
22503;DHT22;11418;48.118;9.992;2023-07-02T02:31:59;16.80;99.90
22503;DHT22;11418;48.118;9.992;2023-07-02T02:35:59;16.70;99.90
22503;DHT22;11418;48.118;9.992;2023-07-02T02:40:00;16.60;99.90
22503;DHT22;11418;48.118;9.992;2023-07-02T02:44:00;16.90;99.90
22503;DHT22;11418;48.118;9.992;2023-07-02T02:48:01;16.90;99.90
22503;DHT22;11418;48.118;9.992;2023-07-02T02:52:04;17.10;99.90
22503;DHT22;11418;48.118;9.992;2023-07-02T02:56:05;16.90;99.90
22503;DHT22;11418;48.118;9.992;2023-07-02T03:00:05;16.90;99.90
22503;DHT22;11418;48.118;9.992;2023-07-02T03:04:07;16.90;99.90
22503;DHT22;11418;48.118;9.992;2023-07-02T03:08:08;16.80;99.90
22503;DHT22;11418;48.118;9.992;2023-07-02T03:12:09;16.50;99.90
22503;DHT22;11418;48.118;9.992;2023-07-02T03:16:09;16.40;99.90
22503;DHT22;11418;48.118;9.992;2023-07-02T03:20:10;16.50;99.90
22503;DHT22;11418;48.118;9.992;2023-07-02T03:24:10;16.40;99.90
22503;DHT22;11418;48.118;9.992;2023-07-02T03:28:14;16.30;99.90
22503;DHT22;11418;48.118;9.992;2023-07-02T03:32:14;16.20;99.90
22503;DHT22;11418;48.118;9.992;2023-07-02T03:36:14;16.50;99.90
22503;DHT22;11418;48.118;9.992;2023-07-02T03:40:15;16.50;99.90
22503;DHT22;11418;48.118;9.992;2023-07-02T03:44:15;16.40;99.90
22503;DHT22;11418;48.118;9.992;2023-07-02T03:48:16;16.40;99.90
22503;DHT22;11418;48.118;9.992;2023-07-02T03:52:16;16.20;99.90
22503;DHT22;11418;48.118;9.992;2023-07-02T03:56:17;16.10;99.90
22503;DHT22;11418;48.118;9.992;2023-07-02T04:00:17;16.30;99.90
22503;DHT22;11418;48.118;9.992;2023-07-02T04:04:18;16.60;99.90
22503;DHT22;11418;48.118;9.992;2023-07-02T04:08:18;16.60;99.90
22503;DHT22;11418;48.118;9.992;2023-07-02T04:12:21;16.80;99.90
22503;DHT22;11418;48.118;9.992;2023-07-02T04:16:21;16.60;99.90
22503;DHT22;11418;48.118;9.992;2023-07-02T04:20:22;16.50;99.90
22503;DHT22;11418;48.118;9.992;2023-07-02T04:24:22;16.60;99.90
22503;DHT22;11418;48.118;9.992;2023-07-02T04:28:23;16.60;99.90
22503;DHT22;11418;48.118;9.992;2023-07-02T04:32:23;16.90;99.90
22503;DHT22;11418;48.118;9.992;2023-07-02T04:36:24;16.60;99.90
22503;DHT22;11418;48.118;9.992;2023-07-02T04:40:25;16.50;99.90
22503;DHT22;11418;48.118;9.992;2023-07-02T04:44:25;16.60;99.90
22503;DHT22;11418;48.118;9.992;2023-07-02T04:48:32;16.50;99.90
22503;DHT22;11418;48.118;9.992;2023-07-02T04:52:32;16.70;99.90
22503;DHT22;11418;48.118;9.992;2023-07-02T04:56:32;16.60;99.90
22503;DHT22;11418;48.118;9.992;2023-07-02T05:00:33;16.60;99.90
22503;DHT22;11418;48.118;9.992;2023-07-02T05:04:33;17.20;99.90
22503;DHT22;11418;48.118;9.992;2023-07-02T05:08:34;16.80;99.90
22503;DHT22;11418;48.118;9.992;2023-07-02T05:12:36;16.70;99.90
22503;DHT22;11418;48.118;9.992;2023-07-02T05:16:37;17.10;99.90
22503;DHT22;11418;48.118;9.992;2023-07-02T05:20:37;17.00;99.90
22503;DHT22;11418;48.118;9.992;2023-07-02T05:24:38;17.00;99.90
22503;DHT22;11418;48.118;9.992;2023-07-02T05:28:40;16.70;99.90
22503;DHT22;11418;48.118;9.992;2023-07-02T05:32:41;16.80;99.90
22503;DHT22;11418;48.118;9.992;2023-07-02T05:36:42;16.40;99.90
22503;DHT22;11418;48.118;9.992;2023-07-02T05:40:42;16.00;99.90
22503;DHT22;11418;48.118;9.992;2023-07-02T05:44:43;15.90;99.90
22503;DHT22;11418;48.118;9.992;2023-07-02T05:48:43;15.40;99.90
22503;DHT22;11418;48.118;9.992;2023-07-02T05:52:44;15.20;99.90
22503;DHT22;11418;48.118;9.992;2023-07-02T05:56:44;15.20;99.90
22503;DHT22;11418;48.118;9.992;2023-07-02T06:00:44;15.30;99.90
22503;DHT22;11418;48.118;9.992;2023-07-02T06:04:49;15.50;99.90
22503;DHT22;11418;48.118;9.992;2023-07-02T06:08:50;15.50;99.90
22503;DHT22;11418;48.118;9.992;2023-07-02T06:12:50;15.10;99.90
22503;DHT22;11418;48.118;9.992;2023-07-02T06:16:52;15.80;99.90
22503;DHT22;11418;48.118;9.992;2023-07-02T06:20:53;16.00;99.90
22503;DHT22;11418;48.118;9.992;2023-07-02T06:24:53;16.10;99.90
22503;DHT22;11418;48.118;9.992;2023-07-02T06:28:54;15.90;99.90
22503;DHT22;11418;48.118;9.992;2023-07-02T06:32:54;16.30;99.90
22503;DHT22;11418;48.118;9.992;2023-07-02T06:36:55;16.40;99.90
22503;DHT22;11418;48.118;9.992;2023-07-02T06:40:55;16.60;99.90
22503;DHT22;11418;48.118;9.992;2023-07-02T06:44:56;16.70;99.90
22503;DHT22;11418;48.118;9.992;2023-07-02T06:48:56;17.10;99.90
22503;DHT22;11418;48.118;9.992;2023-07-02T06:52:57;17.00;99.90
22503;DHT22;11418;48.118;9.992;2023-07-02T06:56:57;17.40;99.90
22503;DHT22;11418;48.118;9.992;2023-07-02T07:00:58;17.40;99.90
22503;DHT22;11418;48.118;9.992;2023-07-02T07:04:58;17.80;99.90
22503;DHT22;11418;48.118;9.992;2023-07-02T07:08:58;17.20;99.90
22503;DHT22;11418;48.118;9.992;2023-07-02T07:12:59;17.30;99.90
22503;DHT22;11418;48.118;9.992;2023-07-02T07:17:00;17.00;99.90
22503;DHT22;11418;48.118;9.992;2023-07-02T07:21:00;16.90;99.90
22503;DHT22;11418;48.118;9.992;2023-07-02T07:25:01;17.60;99.90
22503;DHT22;11418;48.118;9.992;2023-07-02T07:29:01;17.50;99.90
22503;DHT22;11418;48.118;9.992;2023-07-02T07:33:03;17.40;99.90
22503;DHT22;11418;48.118;9.992;2023-07-02T07:37:04;17.20;99.90
22503;DHT22;11418;48.118;9.992;2023-07-02T07:41:05;17.00;99.90
22503;DHT22;11418;48.118;9.992;2023-07-02T07:45:05;16.90;99.90
22503;DHT22;11418;48.118;9.992;2023-07-02T07:49:06;16.40;99.90
22503;DHT22;11418;48.118;9.992;2023-07-02T07:53:06;16.40;99.90
22503;DHT22;11418;48.118;9.992;2023-07-02T07:57:07;16.40;99.90
22503;DHT22;11418;48.118;9.992;2023-07-02T08:01:09;16.30;99.90
22503;DHT22;11418;48.118;9.992;2023-07-02T08:05:09;16.10;99.90
22503;DHT22;11418;48.118;9.992;2023-07-02T08:09:10;16.20;99.90
22503;DHT22;11418;48.118;9.992;2023-07-02T08:13:11;16.00;99.90
22503;DHT22;11418;48.118;9.992;2023-07-02T08:17:11;16.50;99.90
22503;DHT22;11418;48.118;9.992;2023-07-02T08:21:12;16.70;99.90
22503;DHT22;11418;48.118;9.992;2023-07-02T08:25:12;16.80;99.90
22503;DHT22;11418;48.118;9.992;2023-07-02T08:29:13;17.00;99.90
22503;DHT22;11418;48.118;9.992;2023-07-02T08:33:13;17.70;99.90
22503;DHT22;11418;48.118;9.992;2023-07-02T08:37:14;17.50;99.90
22503;DHT22;11418;48.118;9.992;2023-07-02T08:41:14;17.30;99.90
22503;DHT22;11418;48.118;9.992;2023-07-02T08:45:15;17.40;99.90
22503;DHT22;11418;48.118;9.992;2023-07-02T08:49:17;17.90;99.90
22503;DHT22;11418;48.118;9.992;2023-07-02T08:53:17;17.80;99.90
22503;DHT22;11418;48.118;9.992;2023-07-02T08:57:18;18.10;99.90
22503;DHT22;11418;48.118;9.992;2023-07-02T09:01:19;18.60;99.90
22503;DHT22;11418;48.118;9.992;2023-07-02T09:05:20;19.60;99.90
22503;DHT22;11418;48.118;9.992;2023-07-02T09:09:20;20.20;99.90
22503;DHT22;11418;48.118;9.992;2023-07-02T09:13:21;20.80;99.90
22503;DHT22;11418;48.118;9.992;2023-07-02T09:17:21;20.90;99.90
22503;DHT22;11418;48.118;9.992;2023-07-02T09:21:22;20.90;99.90
22503;DHT22;11418;48.118;9.992;2023-07-02T09:25:33;21.60;99.90
22503;DHT22;11418;48.118;9.992;2023-07-02T09:29:33;22.10;99.90
22503;DHT22;11418;48.118;9.992;2023-07-02T09:33:41;21.10;99.90
22503;DHT22;11418;48.118;9.992;2023-07-02T09:37:42;21.30;99.90
22503;DHT22;11418;48.118;9.992;2023-07-02T09:41:43;21.80;99.90
22503;DHT22;11418;48.118;9.992;2023-07-02T09:45:45;21.50;99.90
22503;DHT22;11418;48.118;9.992;2023-07-02T09:49:49;22.40;99.90
22503;DHT22;11418;48.118;9.992;2023-07-02T09:53:52;22.90;99.90
22503;DHT22;11418;48.118;9.992;2023-07-02T09:58:02;23.50;99.90
22503;DHT22;11418;48.118;9.992;2023-07-02T10:02:23;23.70;99.90
22503;DHT22;11418;48.118;9.992;2023-07-02T10:06:26;23.10;99.90
22503;DHT22;11418;48.118;9.992;2023-07-02T10:10:31;23.20;99.90
22503;DHT22;11418;48.118;9.992;2023-07-02T10:14:53;24.00;99.90
22503;DHT22;11418;48.118;9.992;2023-07-02T10:18:53;24.10;99.90
22503;DHT22;11418;48.118;9.992;2023-07-02T10:22:54;25.20;99.90
22503;DHT22;11418;48.118;9.992;2023-07-02T10:26:56;24.90;99.90
22503;DHT22;11418;48.118;9.992;2023-07-02T10:30:59;24.10;99.90
22503;DHT22;11418;48.118;9.992;2023-07-02T10:35:21;23.60;99.90
22503;DHT22;11418;48.118;9.992;2023-07-02T10:39:21;24.70;99.90
22503;DHT22;11418;48.118;9.992;2023-07-02T10:43:25;24.90;99.90
22503;DHT22;11418;48.118;9.992;2023-07-02T10:47:26;24.70;99.90
22503;DHT22;11418;48.118;9.992;2023-07-02T10:51:28;25.10;99.90
22503;DHT22;11418;48.118;9.992;2023-07-02T10:55:32;25.20;99.90
22503;DHT22;11418;48.118;9.992;2023-07-02T10:59:33;25.30;99.90
22503;DHT22;11418;48.118;9.992;2023-07-02T11:03:33;25.30;99.90
22503;DHT22;11418;48.118;9.992;2023-07-02T11:07:34;26.20;99.90
22503;DHT22;11418;48.118;9.992;2023-07-02T11:11:34;27.10;99.20
22503;DHT22;11418;48.118;9.992;2023-07-02T11:15:38;26.80;99.90
22503;DHT22;11418;48.118;9.992;2023-07-02T11:19:38;25.40;99.90
22503;DHT22;11418;48.118;9.992;2023-07-02T11:23:39;24.90;99.90
22503;DHT22;11418;48.118;9.992;2023-07-02T11:27:40;25.40;99.90
22503;DHT22;11418;48.118;9.992;2023-07-02T11:31:40;25.20;99.90
22503;DHT22;11418;48.118;9.992;2023-07-02T11:35:40;24.60;99.90
22503;DHT22;11418;48.118;9.992;2023-07-02T11:39:43;24.10;99.90
22503;DHT22;11418;48.118;9.992;2023-07-02T11:43:47;24.10;99.90
22503;DHT22;11418;48.118;9.992;2023-07-02T11:47:50;24.40;99.90
22503;DHT22;11418;48.118;9.992;2023-07-02T11:51:51;24.80;99.90
22503;DHT22;11418;48.118;9.992;2023-07-02T11:55:54;26.40;99.90
22503;DHT22;11418;48.118;9.992;2023-07-02T11:59:58;27.00;99.90
22503;DHT22;11418;48.118;9.992;2023-07-02T12:04:09;26.40;99.90
22503;DHT22;11418;48.118;9.992;2023-07-02T12:08:12;25.40;99.90
22503;DHT22;11418;48.118;9.992;2023-07-02T12:12:12;25.20;99.90
22503;DHT22;11418;48.118;9.992;2023-07-02T12:16:13;27.30;99.90
22503;DHT22;11418;48.118;9.992;2023-07-02T12:20:13;27.10;99.90
22503;DHT22;11418;48.118;9.992;2023-07-02T12:24:14;26.30;99.90
22503;DHT22;11418;48.118;9.992;2023-07-02T12:28:14;27.90;99.90
22503;DHT22;11418;48.118;9.992;2023-07-02T12:32:15;29.90;98.30
22503;DHT22;11418;48.118;9.992;2023-07-02T12:36:15;30.40;97.30
22503;DHT22;11418;48.118;9.992;2023-07-02T12:40:16;30.70;94.90
22503;DHT22;11418;48.118;9.992;2023-07-02T12:44:22;30.50;94.00
22503;DHT22;11418;48.118;9.992;2023-07-02T12:48:26;30.70;95.70
22503;DHT22;11418;48.118;9.992;2023-07-02T12:52:35;30.40;95.30
22503;DHT22;11418;48.118;9.992;2023-07-02T12:56:39;30.60;92.60
22503;DHT22;11418;48.118;9.992;2023-07-02T13:00:39;31.50;91.10
22503;DHT22;11418;48.118;9.992;2023-07-02T13:04:40;32.10;90.30
22503;DHT22;11418;48.118;9.992;2023-07-02T13:08:40;33.00;87.10
22503;DHT22;11418;48.118;9.992;2023-07-02T13:12:47;32.90;79.20
22503;DHT22;11418;48.118;9.992;2023-07-02T13:16:47;32.00;83.40
22503;DHT22;11418;48.118;9.992;2023-07-02T13:20:57;32.90;82.00
22503;DHT22;11418;48.118;9.992;2023-07-02T13:24:57;33.20;76.60
22503;DHT22;11418;48.118;9.992;2023-07-02T13:28:58;32.60;79.10
22503;DHT22;11418;48.118;9.992;2023-07-02T13:32:58;32.80;79.20
22503;DHT22;11418;48.118;9.992;2023-07-02T13:36:59;32.80;75.20
22503;DHT22;11418;48.118;9.992;2023-07-02T13:40:59;31.40;80.50
22503;DHT22;11418;48.118;9.992;2023-07-02T13:45:00;32.10;79.40
22503;DHT22;11418;48.118;9.992;2023-07-02T13:49:00;32.90;74.70
22503;DHT22;11418;48.118;9.992;2023-07-02T13:53:01;33.80;75.00
22503;DHT22;11418;48.118;9.992;2023-07-02T14:01:47;31.10;79.20
22503;DHT22;11418;48.118;9.992;2023-07-02T14:05:53;32.20;79.80
22503;DHT22;11418;48.118;9.992;2023-07-02T14:09:53;34.40;67.80
22503;DHT22;11418;48.118;9.992;2023-07-02T14:14:14;34.80;67.70
22503;DHT22;11418;48.118;9.992;2023-07-02T14:18:14;35.50;64.50
22503;DHT22;11418;48.118;9.992;2023-07-02T14:22:15;34.60;67.80
22503;DHT22;11418;48.118;9.992;2023-07-02T14:26:15;34.30;66.80
22503;DHT22;11418;48.118;9.992;2023-07-02T14:30:16;34.70;64.00
22503;DHT22;11418;48.118;9.992;2023-07-02T14:34:17;34.80;63.00
22503;DHT22;11418;48.118;9.992;2023-07-02T14:38:17;34.50;62.80
22503;DHT22;11418;48.118;9.992;2023-07-02T14:42:18;35.00;62.70
22503;DHT22;11418;48.118;9.992;2023-07-02T14:46:18;34.00;63.80
22503;DHT22;11418;48.118;9.992;2023-07-02T14:50:18;32.90;64.30
22503;DHT22;11418;48.118;9.992;2023-07-02T14:54:19;32.30;69.10
22503;DHT22;11418;48.118;9.992;2023-07-02T14:58:20;33.70;63.80
22503;DHT22;11418;48.118;9.992;2023-07-02T15:02:20;33.50;62.80
22503;DHT22;11418;48.118;9.992;2023-07-02T15:06:21;31.40;66.80
22503;DHT22;11418;48.118;9.992;2023-07-02T15:10:21;31.10;69.10
22503;DHT22;11418;48.118;9.992;2023-07-02T15:14:22;30.40;71.60
22503;DHT22;11418;48.118;9.992;2023-07-02T15:18:22;30.80;68.70
22503;DHT22;11418;48.118;9.992;2023-07-02T15:22:23;31.20;67.20
22503;DHT22;11418;48.118;9.992;2023-07-02T15:26:23;31.10;65.20
22503;DHT22;11418;48.118;9.992;2023-07-02T15:30:25;31.30;66.40
22503;DHT22;11418;48.118;9.992;2023-07-02T15:34:25;31.70;64.30
22503;DHT22;11418;48.118;9.992;2023-07-02T15:38:26;31.10;67.50
22503;DHT22;11418;48.118;9.992;2023-07-02T15:42:27;31.00;67.70
22503;DHT22;11418;48.118;9.992;2023-07-02T15:46:30;30.90;67.00
22503;DHT22;11418;48.118;9.992;2023-07-02T15:50:30;30.10;69.50
22503;DHT22;11418;48.118;9.992;2023-07-02T15:54:31;28.50;71.70
22503;DHT22;11418;48.118;9.992;2023-07-02T15:58:31;26.70;76.10
22503;DHT22;11418;48.118;9.992;2023-07-02T16:02:32;25.90;82.10
22503;DHT22;11418;48.118;9.992;2023-07-02T16:06:32;25.60;81.00
22503;DHT22;11418;48.118;9.992;2023-07-02T16:10:34;25.00;79.50
22503;DHT22;11418;48.118;9.992;2023-07-02T16:14:34;24.70;82.70
22503;DHT22;11418;48.118;9.992;2023-07-02T16:18:35;24.30;84.60
22503;DHT22;11418;48.118;9.992;2023-07-02T16:22:35;24.10;84.80
22503;DHT22;11418;48.118;9.992;2023-07-02T16:26:36;24.90;85.40
22503;DHT22;11418;48.118;9.992;2023-07-02T16:30:37;24.60;82.20
22503;DHT22;11418;48.118;9.992;2023-07-02T16:34:38;24.40;83.40
22503;DHT22;11418;48.118;9.992;2023-07-02T16:38:43;24.60;85.30
22503;DHT22;11418;48.118;9.992;2023-07-02T16:42:44;24.50;83.00
22503;DHT22;11418;48.118;9.992;2023-07-02T16:46:45;24.40;86.40
22503;DHT22;11418;48.118;9.992;2023-07-02T16:50:48;24.60;87.70
22503;DHT22;11418;48.118;9.992;2023-07-02T16:54:49;24.50;83.90
22503;DHT22;11418;48.118;9.992;2023-07-02T16:58:49;24.00;85.20
22503;DHT22;11418;48.118;9.992;2023-07-02T17:02:50;23.60;87.90
22503;DHT22;11418;48.118;9.992;2023-07-02T17:06:54;23.20;88.40
22503;DHT22;11418;48.118;9.992;2023-07-02T17:10:55;23.00;90.10
22503;DHT22;11418;48.118;9.992;2023-07-02T17:14:55;22.80;92.30
22503;DHT22;11418;48.118;9.992;2023-07-02T17:18:58;22.80;91.40
22503;DHT22;11418;48.118;9.992;2023-07-02T17:22:59;22.80;91.30
22503;DHT22;11418;48.118;9.992;2023-07-02T17:27:00;22.70;93.00
22503;DHT22;11418;48.118;9.992;2023-07-02T17:31:00;22.70;93.70
22503;DHT22;11418;48.118;9.992;2023-07-02T17:35:01;22.50;93.40
22503;DHT22;11418;48.118;9.992;2023-07-02T17:39:01;22.70;93.70
22503;DHT22;11418;48.118;9.992;2023-07-02T17:43:02;22.60;94.50
22503;DHT22;11418;48.118;9.992;2023-07-02T17:47:03;23.10;94.30
22503;DHT22;11418;48.118;9.992;2023-07-02T17:51:08;23.20;94.20
22503;DHT22;11418;48.118;9.992;2023-07-02T17:55:08;23.30;93.20
22503;DHT22;11418;48.118;9.992;2023-07-02T17:59:09;23.20;93.50
22503;DHT22;11418;48.118;9.992;2023-07-02T18:03:10;23.20;94.50
22503;DHT22;11418;48.118;9.992;2023-07-02T18:07:14;23.10;93.50
22503;DHT22;11418;48.118;9.992;2023-07-02T18:11:15;22.80;95.30
22503;DHT22;11418;48.118;9.992;2023-07-02T18:15:15;22.70;95.30
22503;DHT22;11418;48.118;9.992;2023-07-02T18:19:16;22.90;95.50
22503;DHT22;11418;48.118;9.992;2023-07-02T18:23:17;22.60;95.90
22503;DHT22;11418;48.118;9.992;2023-07-02T18:27:18;22.90;96.10
22503;DHT22;11418;48.118;9.992;2023-07-02T18:31:18;22.60;96.80
22503;DHT22;11418;48.118;9.992;2023-07-02T18:35:20;22.50;97.50
22503;DHT22;11418;48.118;9.992;2023-07-02T18:39:21;22.30;98.50
22503;DHT22;11418;48.118;9.992;2023-07-02T18:43:23;22.10;98.20
22503;DHT22;11418;48.118;9.992;2023-07-02T18:47:24;21.90;96.90
22503;DHT22;11418;48.118;9.992;2023-07-02T18:51:24;21.60;95.70
22503;DHT22;11418;48.118;9.992;2023-07-02T18:55:28;21.30;94.70
22503;DHT22;11418;48.118;9.992;2023-07-02T18:59:28;21.10;95.00
22503;DHT22;11418;48.118;9.992;2023-07-02T19:03:29;20.90;94.80
22503;DHT22;11418;48.118;9.992;2023-07-02T19:07:29;21.00;94.30
22503;DHT22;11418;48.118;9.992;2023-07-02T19:11:30;20.90;95.10
22503;DHT22;11418;48.118;9.992;2023-07-02T19:15:30;20.70;94.50
22503;DHT22;11418;48.118;9.992;2023-07-02T19:19:31;20.70;95.20
22503;DHT22;11418;48.118;9.992;2023-07-02T19:23:32;20.60;93.40
22503;DHT22;11418;48.118;9.992;2023-07-02T19:27:32;20.50;93.40
22503;DHT22;11418;48.118;9.992;2023-07-02T19:31:39;20.20;94.60
22503;DHT22;11418;48.118;9.992;2023-07-02T19:40:19;19.90;95.20
22503;DHT22;11418;48.118;9.992;2023-07-02T19:44:20;19.20;96.50
22503;DHT22;11418;48.118;9.992;2023-07-02T19:48:21;19.20;95.60
22503;DHT22;11418;48.118;9.992;2023-07-02T19:52:22;19.10;97.60
22503;DHT22;11418;48.118;9.992;2023-07-02T19:56:22;18.60;99.20
22503;DHT22;11418;48.118;9.992;2023-07-02T20:05:04;17.80;99.90
22503;DHT22;11418;48.118;9.992;2023-07-02T20:09:09;17.30;99.90
22503;DHT22;11418;48.118;9.992;2023-07-02T20:13:18;16.80;99.90
22503;DHT22;11418;48.118;9.992;2023-07-02T20:17:19;16.40;99.90
22503;DHT22;11418;48.118;9.992;2023-07-02T20:25:30;16.00;99.90
22503;DHT22;11418;48.118;9.992;2023-07-02T20:29:36;15.90;99.90
22503;DHT22;11418;48.118;9.992;2023-07-02T20:33:52;15.90;99.90
22503;DHT22;11418;48.118;9.992;2023-07-02T20:38:03;15.90;99.90
22503;DHT22;11418;48.118;9.992;2023-07-02T20:42:10;15.80;99.90
22503;DHT22;11418;48.118;9.992;2023-07-02T20:46:20;15.70;99.90
22503;DHT22;11418;48.118;9.992;2023-07-02T20:50:27;15.60;99.90
22503;DHT22;11418;48.118;9.992;2023-07-02T20:55:28;15.30;99.90
22503;DHT22;11418;48.118;9.992;2023-07-02T21:03:52;15.00;99.90
22503;DHT22;11418;48.118;9.992;2023-07-02T21:07:56;14.90;99.90
22503;DHT22;11418;48.118;9.992;2023-07-02T21:12:19;13.80;99.90
22503;DHT22;11418;48.118;9.992;2023-07-02T21:16:29;14.70;99.90
22503;DHT22;11418;48.118;9.992;2023-07-02T21:20:42;14.70;99.90
22503;DHT22;11418;48.118;9.992;2023-07-02T21:24:49;14.50;99.90
22503;DHT22;11418;48.118;9.992;2023-07-02T21:28:59;14.40;99.90
22503;DHT22;11418;48.118;9.992;2023-07-02T21:33:08;14.30;99.90
22503;DHT22;11418;48.118;9.992;2023-07-02T21:37:09;14.20;99.90
22503;DHT22;11418;48.118;9.992;2023-07-02T21:46:18;14.00;99.90
22503;DHT22;11418;48.118;9.992;2023-07-02T21:50:28;14.40;99.90
22503;DHT22;11418;48.118;9.992;2023-07-02T22:03:58;13.60;99.90
22503;DHT22;11418;48.118;9.992;2023-07-02T22:08:06;13.50;99.90
22503;DHT22;11418;48.118;9.992;2023-07-02T22:12:16;13.60;99.90
22503;DHT22;11418;48.118;9.992;2023-07-02T22:16:16;13.60;99.90
22503;DHT22;11418;48.118;9.992;2023-07-02T22:20:28;14.20;99.90
22503;DHT22;11418;48.118;9.992;2023-07-02T22:24:30;13.50;99.90
22503;DHT22;11418;48.118;9.992;2023-07-02T22:41:19;13.30;99.90
22503;DHT22;11418;48.118;9.992;2023-07-02T22:45:19;13.30;99.90
22503;DHT22;11418;48.118;9.992;2023-07-02T22:49:20;13.20;99.90
22503;DHT22;11418;48.118;9.992;2023-07-02T22:53:20;13.10;99.90
22503;DHT22;11418;48.118;9.992;2023-07-02T22:57:21;13.20;99.90
22503;DHT22;11418;48.118;9.992;2023-07-02T23:01:22;13.20;99.90
22503;DHT22;11418;48.118;9.992;2023-07-02T23:05:22;13.30;99.90
22503;DHT22;11418;48.118;9.992;2023-07-02T23:09:23;13.40;99.90
22503;DHT22;11418;48.118;9.992;2023-07-02T23:13:23;14.30;99.90
22503;DHT22;11418;48.118;9.992;2023-07-02T23:17:24;14.90;99.90
22503;DHT22;11418;48.118;9.992;2023-07-02T23:26:32;15.70;99.90
22503;DHT22;11418;48.118;9.992;2023-07-02T23:30:37;15.40;99.90
22503;DHT22;11418;48.118;9.992;2023-07-02T23:34:49;15.00;99.90
22503;DHT22;11418;48.118;9.992;2023-07-02T23:43:48;14.90;99.90
22503;DHT22;11418;48.118;9.992;2023-07-02T23:47:49;15.00;99.90
22503;DHT22;11418;48.118;9.992;2023-07-02T23:51:49;14.10;99.90
22503;DHT22;11418;48.118;9.992;2023-07-02T23:55:59;15.00;99.90
